sensor_id;sensor_type;location;lat;lon;timestamp;pressure;altitude;pressure_sealevel;temperature;humidity
71107;BME280;58763;47.982;11.516;2024-01-30T00:01:45;95441.00;;;1.67;69.75
71107;BME280;58763;47.982;11.516;2024-01-30T00:04:10;95440.16;;;1.67;69.83
71107;BME280;58763;47.982;11.516;2024-01-30T00:06:36;95442.44;;;1.70;69.87
71107;BME280;58763;47.982;11.516;2024-01-30T00:09:01;95438.13;;;1.75;69.60
71107;BME280;58763;47.982;11.516;2024-01-30T00:11:27;95439.81;;;1.83;69.14
71107;BME280;58763;47.982;11.516;2024-01-30T00:13:54;95432.66;;;1.90;69.05
71107;BME280;58763;47.982;11.516;2024-01-30T00:16:22;95440.66;;;1.90;68.46
71107;BME280;58763;47.982;11.516;2024-01-30T00:18:52;95448.66;;;1.90;68.44
71107;BME280;58763;47.982;11.516;2024-01-30T00:21:18;95444.97;;;1.91;68.63
71107;BME280;58763;47.982;11.516;2024-01-30T00:23:44;95445.34;;;1.81;68.89
71107;BME280;58763;47.982;11.516;2024-01-30T00:26:09;95443.28;;;1.77;69.49
71107;BME280;58763;47.982;11.516;2024-01-30T00:28:35;95452.91;;;1.78;69.27
71107;BME280;58763;47.982;11.516;2024-01-30T00:31:01;95445.16;;;1.89;69.07
71107;BME280;58763;47.982;11.516;2024-01-30T00:33:26;95442.69;;;1.88;69.18
71107;BME280;58763;47.982;11.516;2024-01-30T00:35:52;95450.94;;;1.99;68.33
71107;BME280;58763;47.982;11.516;2024-01-30T00:38:17;95449.25;;;1.85;67.90
71107;BME280;58763;47.982;11.516;2024-01-30T00:40:43;95446.59;;;1.85;67.87
71107;BME280;58763;47.982;11.516;2024-01-30T00:43:09;95443.47;;;1.75;68.21
71107;BME280;58763;47.982;11.516;2024-01-30T00:45:34;95444.13;;;1.90;67.69
71107;BME280;58763;47.982;11.516;2024-01-30T00:48:00;95444.38;;;1.95;67.60
71107;BME280;58763;47.982;11.516;2024-01-30T00:50:27;95445.00;;;2.04;67.08
71107;BME280;58763;47.982;11.516;2024-01-30T00:52:52;95448.69;;;2.09;66.63
71107;BME280;58763;47.982;11.516;2024-01-30T00:55:18;95441.72;;;2.08;66.34
71107;BME280;58763;47.982;11.516;2024-01-30T00:57:43;95448.09;;;2.07;66.58
71107;BME280;58763;47.982;11.516;2024-01-30T01:00:10;95450.75;;;2.07;67.01
71107;BME280;58763;47.982;11.516;2024-01-30T01:02:35;95446.66;;;2.05;67.40
71107;BME280;58763;47.982;11.516;2024-01-30T01:05:02;95449.09;;;2.06;67.28
71107;BME280;58763;47.982;11.516;2024-01-30T01:07:27;95446.81;;;2.03;67.65
71107;BME280;58763;47.982;11.516;2024-01-30T01:09:53;95447.03;;;2.08;67.32
71107;BME280;58763;47.982;11.516;2024-01-30T01:12:18;95442.97;;;2.19;67.35
71107;BME280;58763;47.982;11.516;2024-01-30T01:14:45;95445.44;;;2.21;66.73
71107;BME280;58763;47.982;11.516;2024-01-30T01:17:10;95440.31;;;2.39;66.17
71107;BME280;58763;47.982;11.516;2024-01-30T01:19:36;95445.25;;;2.42;65.73
71107;BME280;58763;47.982;11.516;2024-01-30T01:22:02;95448.13;;;2.40;65.68
71107;BME280;58763;47.982;11.516;2024-01-30T01:24:31;95443.63;;;2.54;65.07
71107;BME280;58763;47.982;11.516;2024-01-30T01:26:58;95446.50;;;2.59;64.61
71107;BME280;58763;47.982;11.516;2024-01-30T01:29:24;95449.16;;;2.65;64.60
71107;BME280;58763;47.982;11.516;2024-01-30T01:31:55;95443.19;;;2.63;64.34
71107;BME280;58763;47.982;11.516;2024-01-30T01:34:21;95454.91;;;2.62;64.26
71107;BME280;58763;47.982;11.516;2024-01-30T01:36:47;95447.91;;;2.61;64.33
71107;BME280;58763;47.982;11.516;2024-01-30T01:39:13;95440.72;;;2.55;64.47
71107;BME280;58763;47.982;11.516;2024-01-30T01:41:39;95438.28;;;2.54;64.36
71107;BME280;58763;47.982;11.516;2024-01-30T01:44:04;95439.06;;;2.48;64.31
71107;BME280;58763;47.982;11.516;2024-01-30T01:46:33;95442.38;;;2.56;63.58
71107;BME280;58763;47.982;11.516;2024-01-30T01:49:00;95439.69;;;2.37;64.29
71107;BME280;58763;47.982;11.516;2024-01-30T01:51:27;95437.44;;;2.34;64.16
71107;BME280;58763;47.982;11.516;2024-01-30T01:53:55;95437.25;;;2.29;64.18
71107;BME280;58763;47.982;11.516;2024-01-30T01:56:22;95438.03;;;2.29;64.18
71107;BME280;58763;47.982;11.516;2024-01-30T01:58:49;95447.09;;;2.22;64.28
71107;BME280;58763;47.982;11.516;2024-01-30T02:01:16;95437.44;;;2.34;63.60
71107;BME280;58763;47.982;11.516;2024-01-30T02:03:45;95440.53;;;2.44;63.37
71107;BME280;58763;47.982;11.516;2024-01-30T02:06:13;95434.13;;;2.38;63.91
71107;BME280;58763;47.982;11.516;2024-01-30T02:08:39;95443.38;;;2.36;64.02
71107;BME280;58763;47.982;11.516;2024-01-30T02:11:05;95439.28;;;2.40;63.65
71107;BME280;58763;47.982;11.516;2024-01-30T02:13:30;95437.03;;;2.43;63.30
71107;BME280;58763;47.982;11.516;2024-01-30T02:15:56;95438.06;;;2.49;62.88
71107;BME280;58763;47.982;11.516;2024-01-30T02:18:22;95448.13;;;2.47;63.16
71107;BME280;58763;47.982;11.516;2024-01-30T02:20:48;95444.19;;;2.36;63.40
71107;BME280;58763;47.982;11.516;2024-01-30T02:23:17;95443.19;;;2.50;62.66
71107;BME280;58763;47.982;11.516;2024-01-30T02:25:44;95443.00;;;2.52;62.45
71107;BME280;58763;47.982;11.516;2024-01-30T02:28:13;95442.56;;;2.55;62.49
71107;BME280;58763;47.982;11.516;2024-01-30T02:30:39;95445.03;;;2.43;62.55
71107;BME280;58763;47.982;11.516;2024-01-30T02:33:05;95453.66;;;2.32;62.97
71107;BME280;58763;47.982;11.516;2024-01-30T02:35:31;95448.31;;;2.39;62.98
71107;BME280;58763;47.982;11.516;2024-01-30T02:37:56;95450.16;;;2.32;62.91
71107;BME280;58763;47.982;11.516;2024-01-30T02:40:22;95456.31;;;2.26;63.43
71107;BME280;58763;47.982;11.516;2024-01-30T02:42:47;95452.41;;;2.22;63.55
71107;BME280;58763;47.982;11.516;2024-01-30T02:45:13;95454.44;;;2.20;63.01
71107;BME280;58763;47.982;11.516;2024-01-30T02:47:39;95449.94;;;2.14;62.94
71107;BME280;58763;47.982;11.516;2024-01-30T02:50:05;95451.59;;;2.15;62.61
71107;BME280;58763;47.982;11.516;2024-01-30T02:52:31;95450.53;;;2.16;62.17
71107;BME280;58763;47.982;11.516;2024-01-30T02:54:57;95447.88;;;2.02;62.26
71107;BME280;58763;47.982;11.516;2024-01-30T02:57:22;95448.03;;;2.01;62.14
71107;BME280;58763;47.982;11.516;2024-01-30T02:59:48;95446.59;;;1.98;62.30
71107;BME280;58763;47.982;11.516;2024-01-30T03:02:13;95440.03;;;1.94;62.17
71107;BME280;58763;47.982;11.516;2024-01-30T03:04:42;95443.75;;;2.00;62.33
71107;BME280;58763;47.982;11.516;2024-01-30T03:07:08;95438.03;;;2.03;62.32
71107;BME280;58763;47.982;11.516;2024-01-30T03:09:34;95439.25;;;2.00;62.11
71107;BME280;58763;47.982;11.516;2024-01-30T03:12:00;95440.66;;;1.90;62.61
71107;BME280;58763;47.982;11.516;2024-01-30T03:14:26;95432.63;;;1.83;62.99
71107;BME280;58763;47.982;11.516;2024-01-30T03:16:52;95432.44;;;1.91;63.39
71107;BME280;58763;47.982;11.516;2024-01-30T03:19:17;95429.97;;;1.83;63.61
71107;BME280;58763;47.982;11.516;2024-01-30T03:21:44;95422.19;;;1.88;63.31
71107;BME280;58763;47.982;11.516;2024-01-30T03:24:10;95428.53;;;1.81;63.41
71107;BME280;58763;47.982;11.516;2024-01-30T03:26:36;95425.63;;;1.76;63.45
71107;BME280;58763;47.982;11.516;2024-01-30T03:29:01;95417.25;;;1.79;63.18
71107;BME280;58763;47.982;11.516;2024-01-30T03:31:27;95427.28;;;1.77;63.34
71107;BME280;58763;47.982;11.516;2024-01-30T03:33:52;95435.06;;;1.78;63.81
71107;BME280;58763;47.982;11.516;2024-01-30T03:36:18;95434.84;;;1.73;63.86
71107;BME280;58763;47.982;11.516;2024-01-30T03:38:44;95424.81;;;1.75;64.23
71107;BME280;58763;47.982;11.516;2024-01-30T03:41:09;95433.00;;;1.67;64.17
71107;BME280;58763;47.982;11.516;2024-01-30T03:43:36;95433.00;;;1.67;64.09
71107;BME280;58763;47.982;11.516;2024-01-30T03:46:02;95433.16;;;1.59;64.52
71107;BME280;58763;47.982;11.516;2024-01-30T03:48:29;95430.28;;;1.54;64.70
71107;BME280;58763;47.982;11.516;2024-01-30T03:50:54;95421.66;;;1.52;64.88
71107;BME280;58763;47.982;11.516;2024-01-30T03:53:21;95419.38;;;1.42;64.74
71107;BME280;58763;47.982;11.516;2024-01-30T03:55:47;95424.91;;;1.41;64.98
71107;BME280;58763;47.982;11.516;2024-01-30T03:58:13;95422.25;;;1.48;65.05
71107;BME280;58763;47.982;11.516;2024-01-30T04:00:38;95424.06;;;1.40;64.97
71107;BME280;58763;47.982;11.516;2024-01-30T04:03:05;95428.81;;;1.45;65.71
71107;BME280;58763;47.982;11.516;2024-01-30T04:05:31;95424.09;;;1.47;65.57
71107;BME280;58763;47.982;11.516;2024-01-30T04:07:57;95418.97;;;1.39;66.19
71107;BME280;58763;47.982;11.516;2024-01-30T04:10:23;95417.28;;;1.38;66.12
71107;BME280;58763;47.982;11.516;2024-01-30T04:12:50;95420.38;;;1.35;66.20
71107;BME280;58763;47.982;11.516;2024-01-30T04:15:17;95422.19;;;1.28;66.36
71107;BME280;58763;47.982;11.516;2024-01-30T04:17:44;95423.66;;;1.30;66.20
71107;BME280;58763;47.982;11.516;2024-01-30T04:20:16;95418.09;;;1.32;66.43
71107;BME280;58763;47.982;11.516;2024-01-30T04:22:45;95412.75;;;1.25;66.48
71107;BME280;58763;47.982;11.516;2024-01-30T04:25:12;95412.34;;;1.28;66.16
71107;BME280;58763;47.982;11.516;2024-01-30T04:27:38;95423.81;;;1.29;66.57
71107;BME280;58763;47.982;11.516;2024-01-30T04:30:04;95413.16;;;1.29;66.94
71107;BME280;58763;47.982;11.516;2024-01-30T04:32:30;95419.13;;;1.31;66.39
71107;BME280;58763;47.982;11.516;2024-01-30T04:34:55;95419.47;;;1.21;66.71
71107;BME280;58763;47.982;11.516;2024-01-30T04:37:21;95423.31;;;1.12;66.70
71107;BME280;58763;47.982;11.516;2024-01-30T04:39:47;95415.19;;;1.20;66.50
71107;BME280;58763;47.982;11.516;2024-01-30T04:42:12;95418.94;;;1.32;65.75
71107;BME280;58763;47.982;11.516;2024-01-30T04:44:38;95421.19;;;1.35;65.64
71107;BME280;58763;47.982;11.516;2024-01-30T04:47:04;95417.97;;;1.47;65.15
71107;BME280;58763;47.982;11.516;2024-01-30T04:49:31;95424.78;;;1.62;64.64
71107;BME280;58763;47.982;11.516;2024-01-30T04:51:57;95414.53;;;1.66;64.47
71107;BME280;58763;47.982;11.516;2024-01-30T04:54:24;95421.13;;;1.76;64.09
71107;BME280;58763;47.982;11.516;2024-01-30T04:56:49;95421.34;;;1.75;63.61
71107;BME280;58763;47.982;11.516;2024-01-30T04:59:15;95423.56;;;1.65;64.12
71107;BME280;58763;47.982;11.516;2024-01-30T05:01:41;95418.44;;;1.63;64.02
71107;BME280;58763;47.982;11.516;2024-01-30T05:04:07;95423.97;;;1.68;64.34
71107;BME280;58763;47.982;11.516;2024-01-30T05:06:33;95426.44;;;1.63;64.09
71107;BME280;58763;47.982;11.516;2024-01-30T05:08:59;95424.38;;;1.59;64.25
71107;BME280;58763;47.982;11.516;2024-01-30T05:11:24;95428.66;;;1.60;64.00
71107;BME280;58763;47.982;11.516;2024-01-30T05:13:50;95425.84;;;1.74;63.59
71107;BME280;58763;47.982;11.516;2024-01-30T05:16:15;95433.84;;;1.74;63.26
71107;BME280;58763;47.982;11.516;2024-01-30T05:18:41;95431.78;;;1.76;62.45
71107;BME280;58763;47.982;11.516;2024-01-30T05:21:06;95427.91;;;1.79;62.32
71107;BME280;58763;47.982;11.516;2024-01-30T05:23:33;95428.13;;;1.77;62.50
71107;BME280;58763;47.982;11.516;2024-01-30T05:25:59;95434.28;;;1.84;62.53
71107;BME280;58763;47.982;11.516;2024-01-30T05:28:26;95434.66;;;1.75;62.47
71107;BME280;58763;47.982;11.516;2024-01-30T05:30:52;95435.06;;;1.72;62.94
71107;BME280;58763;47.982;11.516;2024-01-30T05:33:17;95434.25;;;1.78;62.68
71107;BME280;58763;47.982;11.516;2024-01-30T05:35:43;95430.97;;;1.82;62.11
71107;BME280;58763;47.982;11.516;2024-01-30T05:38:08;95432.63;;;1.83;61.96
71107;BME280;58763;47.982;11.516;2024-01-30T05:40:34;95427.91;;;1.72;62.27
71107;BME280;58763;47.982;11.516;2024-01-30T05:43:00;95435.28;;;1.70;62.34
71107;BME280;58763;47.982;11.516;2024-01-30T05:45:27;95434.00;;;1.66;63.08
71107;BME280;58763;47.982;11.516;2024-01-30T05:47:53;95433.78;;;1.61;62.98
71107;BME280;58763;47.982;11.516;2024-01-30T05:50:19;95439.53;;;1.58;63.12
71107;BME280;58763;47.982;11.516;2024-01-30T05:52:45;95437.41;;;1.47;63.45
71107;BME280;58763;47.982;11.516;2024-01-30T05:55:12;95434.09;;;1.32;63.78
71107;BME280;58763;47.982;11.516;2024-01-30T05:57:38;95439.22;;;1.33;64.11
71107;BME280;58763;47.982;11.516;2024-01-30T06:00:07;95444.97;;;1.37;63.71
71107;BME280;58763;47.982;11.516;2024-01-30T06:02:34;95439.88;;;1.42;63.28
71107;BME280;58763;47.982;11.516;2024-01-30T06:04:59;95440.72;;;1.49;63.06
71107;BME280;58763;47.982;11.516;2024-01-30T06:07:25;95443.81;;;1.53;62.85
71107;BME280;58763;47.982;11.516;2024-01-30T06:09:51;95444.78;;;1.45;63.02
71107;BME280;58763;47.982;11.516;2024-01-30T06:12:17;95441.09;;;1.39;62.97
71107;BME280;58763;47.982;11.516;2024-01-30T06:14:42;95444.53;;;1.33;63.36
71107;BME280;58763;47.982;11.516;2024-01-30T06:17:11;95444.97;;;1.37;63.59
71107;BME280;58763;47.982;11.516;2024-01-30T06:19:38;95448.09;;;1.47;63.21
71107;BME280;58763;47.982;11.516;2024-01-30T06:22:04;95449.34;;;1.51;62.97
71107;BME280;58763;47.982;11.516;2024-01-30T06:24:30;95444.88;;;1.58;62.82
71107;BME280;58763;47.982;11.516;2024-01-30T06:26:56;95457.59;;;1.63;62.80
71107;BME280;58763;47.982;11.516;2024-01-30T06:29:22;95448.53;;;1.57;63.10
71107;BME280;58763;47.982;11.516;2024-01-30T06:31:50;95448.94;;;1.54;63.18
71107;BME280;58763;47.982;11.516;2024-01-30T06:34:16;95450.97;;;1.52;63.03
71107;BME280;58763;47.982;11.516;2024-01-30T06:36:41;95453.47;;;1.54;63.33
71107;BME280;58763;47.982;11.516;2024-01-30T06:39:07;95453.81;;;1.44;62.94
71107;BME280;58763;47.982;11.516;2024-01-30T06:41:33;95450.09;;;1.38;63.27
71107;BME280;58763;47.982;11.516;2024-01-30T06:43:59;95456.25;;;1.39;63.90
71107;BME280;58763;47.982;11.516;2024-01-30T06:46:25;95449.72;;;1.42;63.66
71107;BME280;58763;47.982;11.516;2024-01-30T06:48:51;95461.22;;;1.49;63.46
71107;BME280;58763;47.982;11.516;2024-01-30T06:51:17;95457.69;;;1.35;64.29
71107;BME280;58763;47.982;11.516;2024-01-30T06:53:42;95466.72;;;1.40;64.07
71107;BME280;58763;47.982;11.516;2024-01-30T06:56:08;95462.44;;;1.46;64.34
71107;BME280;58763;47.982;11.516;2024-01-30T06:58:34;95458.34;;;1.44;64.06
71107;BME280;58763;47.982;11.516;2024-01-30T07:01:00;95471.06;;;1.48;64.02
71107;BME280;58763;47.982;11.516;2024-01-30T07:03:25;95468.16;;;1.43;64.29
71107;BME280;58763;47.982;11.516;2024-01-30T07:05:51;95468.38;;;1.42;64.76
71107;BME280;58763;47.982;11.516;2024-01-30T07:08:17;95472.03;;;1.40;65.00
71107;BME280;58763;47.982;11.516;2024-01-30T07:10:43;95475.50;;;1.34;64.97
71107;BME280;58763;47.982;11.516;2024-01-30T07:13:12;95473.72;;;1.48;65.05
71107;BME280;58763;47.982;11.516;2024-01-30T07:15:38;95475.03;;;1.59;64.15
71107;BME280;58763;47.982;11.516;2024-01-30T07:18:05;95479.34;;;1.66;63.82
71107;BME280;58763;47.982;11.516;2024-01-30T07:20:31;95479.53;;;1.58;63.83
71107;BME280;58763;47.982;11.516;2024-01-30T07:23:00;95480.75;;;1.62;63.86
71107;BME280;58763;47.982;11.516;2024-01-30T07:25:26;95482.00;;;1.66;64.19
71107;BME280;58763;47.982;11.516;2024-01-30T07:27:56;95486.72;;;1.71;64.27
71107;BME280;58763;47.982;11.516;2024-01-30T07:30:21;95486.78;;;1.77;64.75
71107;BME280;58763;47.982;11.516;2024-01-30T07:32:49;95486.81;;;1.84;63.90
71107;BME280;58763;47.982;11.516;2024-01-30T07:35:14;95486.00;;;1.96;64.23
71107;BME280;58763;47.982;11.516;2024-01-30T07:37:40;95485.59;;;1.99;64.13
71107;BME280;58763;47.982;11.516;2024-01-30T07:40:06;95483.16;;;2.04;64.19
71107;BME280;58763;47.982;11.516;2024-01-30T07:42:32;95489.13;;;2.06;64.53
71107;BME280;58763;47.982;11.516;2024-01-30T07:44:59;95480.94;;;2.15;63.99
71107;BME280;58763;47.982;11.516;2024-01-30T07:47:25;95487.72;;;2.24;63.66
71107;BME280;58763;47.982;11.516;2024-01-30T07:49:51;95487.94;;;2.29;64.25
71107;BME280;58763;47.982;11.516;2024-01-30T07:52:17;95486.50;;;2.46;63.62
71107;BME280;58763;47.982;11.516;2024-01-30T07:54:42;95485.72;;;2.65;62.80
71107;BME280;58763;47.982;11.516;2024-01-30T07:57:08;95485.31;;;2.74;63.46
71107;BME280;58763;47.982;11.516;2024-01-30T07:59:34;95482.84;;;2.86;63.35
71107;BME280;58763;47.982;11.516;2024-01-30T08:02:00;95494.09;;;3.01;63.91
71107;BME280;58763;47.982;11.516;2024-01-30T08:04:25;95490.41;;;3.09;64.24
71107;BME280;58763;47.982;11.516;2024-01-30T08:06:51;95501.72;;;3.24;63.42
71107;BME280;58763;47.982;11.516;2024-01-30T08:09:17;95490.97;;;3.37;63.18
71107;BME280;58763;47.982;11.516;2024-01-30T08:11:42;95491.75;;;3.50;62.99
71107;BME280;58763;47.982;11.516;2024-01-30T08:14:08;95492.78;;;3.56;63.26
71107;BME280;58763;47.982;11.516;2024-01-30T08:16:33;95495.84;;;3.66;63.37
71107;BME280;58763;47.982;11.516;2024-01-30T08:18:59;95493.97;;;3.67;62.63
71107;BME280;58763;47.982;11.516;2024-01-30T08:21:26;95494.13;;;3.85;62.72
71107;BME280;58763;47.982;11.516;2024-01-30T08:23:51;95495.75;;;3.86;62.01
71107;BME280;58763;47.982;11.516;2024-01-30T08:26:17;95494.09;;;3.91;62.31
71107;BME280;58763;47.982;11.516;2024-01-30T08:28:44;95492.56;;;4.08;61.75
71107;BME280;58763;47.982;11.516;2024-01-30T08:31:10;95498.09;;;4.20;61.59
71107;BME280;58763;47.982;11.516;2024-01-30T08:33:37;95491.16;;;4.37;60.64
71107;BME280;58763;47.982;11.516;2024-01-30T08:36:03;95487.78;;;4.48;60.30
71107;BME280;58763;47.982;11.516;2024-01-30T08:38:28;95492.81;;;4.69;59.06
71107;BME280;58763;47.982;11.516;2024-01-30T08:40:55;95485.50;;;4.83;58.93
71107;BME280;58763;47.982;11.516;2024-01-30T08:43:21;95486.66;;;4.94;58.31
71107;BME280;58763;47.982;11.516;2024-01-30T08:45:47;95485.94;;;5.05;57.19
71107;BME280;58763;47.982;11.516;2024-01-30T08:48:13;95487.28;;;5.14;58.08
71107;BME280;58763;47.982;11.516;2024-01-30T08:50:39;95489.28;;;5.25;59.07
71107;BME280;58763;47.982;11.516;2024-01-30T08:53:04;95488.91;;;5.39;58.48
71107;BME280;58763;47.982;11.516;2024-01-30T08:55:30;95485.78;;;5.60;57.79
71107;BME280;58763;47.982;11.516;2024-01-30T08:57:56;95485.00;;;5.78;56.85
71107;BME280;58763;47.982;11.516;2024-01-30T09:00:21;95489.53;;;5.96;56.51
71107;BME280;58763;47.982;11.516;2024-01-30T09:02:47;95489.50;;;6.14;55.14
71107;BME280;58763;47.982;11.516;2024-01-30T09:05:13;95489.72;;;6.31;55.30
71107;BME280;58763;47.982;11.516;2024-01-30T09:07:39;95494.97;;;6.55;55.01
71107;BME280;58763;47.982;11.516;2024-01-30T09:10:05;95499.00;;;6.76;53.27
71107;BME280;58763;47.982;11.516;2024-01-30T09:12:31;95499.28;;;6.97;52.14
71107;BME280;58763;47.982;11.516;2024-01-30T09:14:57;95500.59;;;7.18;52.15
71107;BME280;58763;47.982;11.516;2024-01-30T09:17:22;95510.69;;;7.46;53.48
71107;BME280;58763;47.982;11.516;2024-01-30T09:19:48;95508.41;;;7.89;54.51
71107;BME280;58763;47.982;11.516;2024-01-30T09:22:14;95507.75;;;8.22;51.25
71107;BME280;58763;47.982;11.516;2024-01-30T09:24:40;95506.78;;;8.51;49.13
71107;BME280;58763;47.982;11.516;2024-01-30T09:27:06;95511.91;;;8.81;47.22
71107;BME280;58763;47.982;11.516;2024-01-30T09:29:32;95516.34;;;9.03;49.01
71107;BME280;58763;47.982;11.516;2024-01-30T09:32:00;95510.41;;;9.35;47.24
71107;BME280;58763;47.982;11.516;2024-01-30T09:34:25;95518.66;;;9.61;46.28
71107;BME280;58763;47.982;11.516;2024-01-30T09:36:51;95509.97;;;9.76;45.50
71107;BME280;58763;47.982;11.516;2024-01-30T09:39:16;95509.94;;;9.93;45.08
71107;BME280;58763;47.982;11.516;2024-01-30T09:41:49;95510.94;;;10.25;45.51
71107;BME280;58763;47.982;11.516;2024-01-30T09:44:18;95509.00;;;10.42;45.92
71107;BME280;58763;47.982;11.516;2024-01-30T09:46:46;95512.47;;;10.59;46.24
71107;BME280;58763;47.982;11.516;2024-01-30T09:49:13;95520.19;;;10.72;45.71
71107;BME280;58763;47.982;11.516;2024-01-30T09:51:39;95514.00;;;10.77;44.67
71107;BME280;58763;47.982;11.516;2024-01-30T09:54:08;95505.47;;;10.90;44.96
71107;BME280;58763;47.982;11.516;2024-01-30T09:56:33;95512.44;;;11.07;45.36
71107;BME280;58763;47.982;11.516;2024-01-30T09:58:59;95509.56;;;11.19;44.32
71107;BME280;58763;47.982;11.516;2024-01-30T10:01:25;95511.22;;;11.20;43.15
71107;BME280;58763;47.982;11.516;2024-01-30T10:03:51;95512.38;;;11.29;41.52
71107;BME280;58763;47.982;11.516;2024-01-30T10:06:18;95504.31;;;11.39;41.66
71107;BME280;58763;47.982;11.516;2024-01-30T10:08:46;95501.69;;;11.49;41.17
71107;BME280;58763;47.982;11.516;2024-01-30T10:11:11;95505.41;;;11.70;42.06
71107;BME280;58763;47.982;11.516;2024-01-30T10:13:39;95498.72;;;11.83;40.32
71107;BME280;58763;47.982;11.516;2024-01-30T10:16:05;95494.88;;;11.78;41.10
71107;BME280;58763;47.982;11.516;2024-01-30T10:18:32;95496.59;;;11.90;41.17
71107;BME280;58763;47.982;11.516;2024-01-30T10:20:59;95500.97;;;11.96;40.84
71107;BME280;58763;47.982;11.516;2024-01-30T10:23:24;95501.78;;;11.96;41.20
71107;BME280;58763;47.982;11.516;2024-01-30T10:25:53;95493.66;;;11.96;40.14
71107;BME280;58763;47.982;11.516;2024-01-30T10:28:19;95491.19;;;11.90;39.91
71107;BME280;58763;47.982;11.516;2024-01-30T10:30:44;95490.63;;;11.88;39.19
71107;BME280;58763;47.982;11.516;2024-01-30T10:33:10;95498.38;;;11.74;41.10
71107;BME280;58763;47.982;11.516;2024-01-30T10:35:36;95492.16;;;11.73;41.46
71107;BME280;58763;47.982;11.516;2024-01-30T10:38:02;95488.81;;;11.66;41.41
71107;BME280;58763;47.982;11.516;2024-01-30T10:40:29;95492.34;;;11.67;42.18
71107;BME280;58763;47.982;11.516;2024-01-30T10:42:55;95486.63;;;11.63;43.40
71107;BME280;58763;47.982;11.516;2024-01-30T10:45:22;95480.56;;;11.51;44.27
71107;BME280;58763;47.982;11.516;2024-01-30T10:47:54;95477.28;;;11.44;44.28
71107;BME280;58763;47.982;11.516;2024-01-30T10:50:24;95482.69;;;11.44;42.80
71107;BME280;58763;47.982;11.516;2024-01-30T10:52:52;95478.59;;;11.42;41.83
71107;BME280;58763;47.982;11.516;2024-01-30T10:55:21;95471.09;;;11.17;41.70
71107;BME280;58763;47.982;11.516;2024-01-30T10:57:47;95474.91;;;11.21;43.80
71107;BME280;58763;47.982;11.516;2024-01-30T11:00:14;95470.94;;;11.29;44.30
71107;BME280;58763;47.982;11.516;2024-01-30T11:02:43;95462.81;;;11.29;43.69
71107;BME280;58763;47.982;11.516;2024-01-30T11:05:10;95460.97;;;11.39;42.58
71107;BME280;58763;47.982;11.516;2024-01-30T11:07:38;95458.22;;;11.34;42.62
71107;BME280;58763;47.982;11.516;2024-01-30T11:10:05;95456.09;;;11.36;42.71
71107;BME280;58763;47.982;11.516;2024-01-30T11:12:33;95457.94;;;11.31;43.07
71107;BME280;58763;47.982;11.516;2024-01-30T11:17:45;95459.59;;;11.37;44.23
71107;BME280;58763;47.982;11.516;2024-01-30T11:20:14;95452.31;;;11.37;44.46
71107;BME280;58763;47.982;11.516;2024-01-30T11:22:49;95447.56;;;11.54;44.60
71107;BME280;58763;47.982;11.516;2024-01-30T11:25:17;95451.09;;;11.60;44.76
71107;BME280;58763;47.982;11.516;2024-01-30T11:27:44;95450.06;;;11.66;43.98
71107;BME280;58763;47.982;11.516;2024-01-30T11:30:20;95445.34;;;11.83;41.20
71107;BME280;58763;47.982;11.516;2024-01-30T11:35:33;95442.00;;;12.28;36.52
71107;BME280;58763;47.982;11.516;2024-01-30T11:38:00;95431.94;;;12.18;35.84
71107;BME280;58763;47.982;11.516;2024-01-30T11:40:30;95424.63;;;12.19;35.60
71107;BME280;58763;47.982;11.516;2024-01-30T11:42:58;95425.41;;;12.14;36.64
71107;BME280;58763;47.982;11.516;2024-01-30T11:45:24;95431.94;;;12.18;37.45
71107;BME280;58763;47.982;11.516;2024-01-30T11:47:50;95433.94;;;12.38;36.72
71107;BME280;58763;47.982;11.516;2024-01-30T11:50:16;95431.28;;;12.63;37.16
71107;BME280;58763;47.982;11.516;2024-01-30T11:52:42;95432.38;;;12.62;37.58
71107;BME280;58763;47.982;11.516;2024-01-30T11:55:09;95422.78;;;12.39;35.43
71107;BME280;58763;47.982;11.516;2024-01-30T11:57:35;95427.44;;;12.39;36.85
71107;BME280;58763;47.982;11.516;2024-01-30T12:00:05;95427.41;;;12.44;38.56
71107;BME280;58763;47.982;11.516;2024-01-30T12:02:36;95420.13;;;12.49;38.94
71107;BME280;58763;47.982;11.516;2024-01-30T12:05:06;95419.63;;;12.58;38.26
71107;BME280;58763;47.982;11.516;2024-01-30T12:07:33;95422.06;;;12.59;37.88
71107;BME280;58763;47.982;11.516;2024-01-30T12:09:59;95420.47;;;12.73;37.78
71107;BME280;58763;47.982;11.516;2024-01-30T12:12:26;95416.88;;;12.63;36.74
71107;BME280;58763;47.982;11.516;2024-01-30T12:14:52;95416.09;;;12.72;36.83
71107;BME280;58763;47.982;11.516;2024-01-30T12:17:29;95397.13;;;12.77;37.04
71107;BME280;58763;47.982;11.516;2024-01-30T12:20:12;95400.09;;;12.91;36.23
71107;BME280;58763;47.982;11.516;2024-01-30T12:22:42;95403.13;;;12.99;36.22
71107;BME280;58763;47.982;11.516;2024-01-30T12:25:08;95400.94;;;12.91;35.84
71107;BME280;58763;47.982;11.516;2024-01-30T12:27:36;95401.47;;;12.98;36.59
71107;BME280;58763;47.982;11.516;2024-01-30T12:30:05;95392.81;;;13.22;36.80
71107;BME280;58763;47.982;11.516;2024-01-30T12:32:31;95394.44;;;13.43;35.35
71107;BME280;58763;47.982;11.516;2024-01-30T12:34:57;95390.91;;;13.52;36.24
71107;BME280;58763;47.982;11.516;2024-01-30T12:37:23;95393.03;;;13.75;36.10
71107;BME280;58763;47.982;11.516;2024-01-30T12:39:51;95389.75;;;13.73;34.93
71107;BME280;58763;47.982;11.516;2024-01-30T12:42:20;95382.97;;;13.81;34.83
71107;BME280;58763;47.982;11.516;2024-01-30T12:44:47;95384.63;;;13.72;35.97
71107;BME280;58763;47.982;11.516;2024-01-30T12:47:13;95382.97;;;13.81;36.20
71107;BME280;58763;47.982;11.516;2024-01-30T12:49:38;95379.13;;;13.87;35.60
71107;BME280;58763;47.982;11.516;2024-01-30T12:52:04;95380.97;;;14.02;34.82
71107;BME280;58763;47.982;11.516;2024-01-30T12:54:30;95380.16;;;14.01;34.40
71107;BME280;58763;47.982;11.516;2024-01-30T12:56:55;95373.91;;;14.01;35.01
71107;BME280;58763;47.982;11.516;2024-01-30T12:59:22;95366.06;;;13.89;35.39